Terminal Aerodrome Forecast
Issued by NWS Tulsa, OK

Home | Current Version | Previous Version | Text Only | Print | Product List | Glossary On
Versions: 1 2 3 4 5 6 7 8 9 10 11 12 13 14
000
FTUS44 KTSA 251120
TAFTUL
TAF
KTUL 251120Z 2512/2612 15014G20KT P6SM SCT250
     FM251400 18015G28KT P6SM BKN250
     FM260100 18012G22KT P6SM SCT050 BKN250
      TEMPO 2603/2607 VRB30G45KT 2SM TSRA BKN020CB
     FM260700 25012G18KT 4SM -SHRA OVC015=

USA.gov is the U.S. government's official web portal to all federal, state and local government web resources and services.